sensor_id;sensor_type;location;lat;lon;timestamp;pressure;altitude;pressure_sealevel;temperature;humidity
2188;BME280;1100;52.014;8.540;2022-11-20T00:00:47;99840.25;;;-5.11;83.31
2188;BME280;1100;52.014;8.540;2022-11-20T00:03:12;99834.34;;;-5.14;83.40
2188;BME280;1100;52.014;8.540;2022-11-20T00:05:37;99832.31;;;-5.17;83.65
2188;BME280;1100;52.014;8.540;2022-11-20T00:08:05;99819.91;;;-5.18;83.52
2188;BME280;1100;52.014;8.540;2022-11-20T00:10:31;99826.91;;;-5.17;83.64
2188;BME280;1100;52.014;8.540;2022-11-20T00:12:58;99821.03;;;-5.19;83.15
2188;BME280;1100;52.014;8.540;2022-11-20T00:15:23;99821.81;;;-5.18;83.42
2188;BME280;1100;52.014;8.540;2022-11-20T00:17:48;99822.97;;;-5.19;83.49
2188;BME280;1100;52.014;8.540;2022-11-20T00:20:14;99821.34;;;-5.20;83.72
2188;BME280;1100;52.014;8.540;2022-11-20T00:22:39;99826.00;;;-5.21;83.67
2188;BME280;1100;52.014;8.540;2022-11-20T00:25:04;99813.69;;;-5.18;83.26
2188;BME280;1100;52.014;8.540;2022-11-20T00:27:30;99805.91;;;-5.20;83.46
2188;BME280;1100;52.014;8.540;2022-11-20T00:29:55;99812.78;;;-5.22;83.57
2188;BME280;1100;52.014;8.540;2022-11-20T00:32:21;99808.81;;;-5.25;83.55
2188;BME280;1100;52.014;8.540;2022-11-20T00:34:46;99802.16;;;-5.28;83.48
2188;BME280;1100;52.014;8.540;2022-11-20T00:37:14;99805.56;;;-5.31;83.69
2188;BME280;1100;52.014;8.540;2022-11-20T00:39:40;99806.34;;;-5.30;83.42
2188;BME280;1100;52.014;8.540;2022-11-20T00:42:05;99806.34;;;-5.30;83.45
2188;BME280;1100;52.014;8.540;2022-11-20T00:44:30;99803.97;;;-5.32;83.32
2188;BME280;1100;52.014;8.540;2022-11-20T00:46:56;99805.88;;;-5.32;83.50
2188;BME280;1100;52.014;8.540;2022-11-20T00:49:21;99812.75;;;-5.35;83.18
2188;BME280;1100;52.014;8.540;2022-11-20T00:51:46;99816.94;;;-5.38;83.61
2188;BME280;1100;52.014;8.540;2022-11-20T00:54:12;99815.03;;;-5.37;83.38
2188;BME280;1100;52.014;8.540;2022-11-20T00:56:37;99809.16;;;-5.39;83.28
2188;BME280;1100;52.014;8.540;2022-11-20T00:59:02;99811.06;;;-5.40;83.55
2188;BME280;1100;52.014;8.540;2022-11-20T01:01:28;99813.75;;;-5.40;83.52
2188;BME280;1100;52.014;8.540;2022-11-20T01:03:58;99815.25;;;-5.42;83.37
2188;BME280;1100;52.014;8.540;2022-11-20T01:06:32;99814.00;;;-5.45;83.28
2188;BME280;1100;52.014;8.540;2022-11-20T01:08:59;99812.75;;;-5.47;83.51
2188;BME280;1100;52.014;8.540;2022-11-20T01:11:31;99811.84;;;-5.52;83.67
2188;BME280;1100;52.014;8.540;2022-11-20T01:13:58;99807.09;;;-5.55;83.33
2188;BME280;1100;52.014;8.540;2022-11-20T01:18:53;99808.44;;;-5.61;83.43
2188;BME280;1100;52.014;8.540;2022-11-20T01:21:29;99809.91;;;-5.64;83.46
2188;BME280;1100;52.014;8.540;2022-11-20T01:23:55;99822.53;;;-5.68;83.45
2188;BME280;1100;52.014;8.540;2022-11-20T01:26:30;99811.25;;;-5.70;83.57
2188;BME280;1100;52.014;8.540;2022-11-20T01:28:58;99809.78;;;-5.67;83.66
2188;BME280;1100;52.014;8.540;2022-11-20T01:31:26;99806.75;;;-5.66;83.31
2188;BME280;1100;52.014;8.540;2022-11-20T01:33:54;99807.41;;;-5.69;83.42
2188;BME280;1100;52.014;8.540;2022-11-20T01:36:22;99811.91;;;-5.73;83.25
2188;BME280;1100;52.014;8.540;2022-11-20T01:38:51;99806.50;;;-5.73;83.60
2188;BME280;1100;52.014;8.540;2022-11-20T01:41:17;99806.50;;;-5.73;83.87
2188;BME280;1100;52.014;8.540;2022-11-20T01:44:02;99800.28;;;-5.73;83.35
2188;BME280;1100;52.014;8.540;2022-11-20T01:46:28;99795.53;;;-5.77;83.16
2188;BME280;1100;52.014;8.540;2022-11-20T01:51:33;99792.03;;;-5.77;83.38
2188;BME280;1100;52.014;8.540;2022-11-20T01:54:02;99796.44;;;-5.72;83.31
2188;BME280;1100;52.014;8.540;2022-11-20T01:56:37;99787.88;;;-5.75;83.65
2188;BME280;1100;52.014;8.540;2022-11-20T01:59:05;99785.94;;;-5.74;83.45
2188;BME280;1100;52.014;8.540;2022-11-20T02:01:32;99778.28;;;-5.72;83.58
2188;BME280;1100;52.014;8.540;2022-11-20T02:03:58;99783.72;;;-5.72;83.64
2188;BME280;1100;52.014;8.540;2022-11-20T02:06:35;99776.25;;;-5.75;83.59
2188;BME280;1100;52.014;8.540;2022-11-20T02:09:04;99776.13;;;-5.79;83.92
2188;BME280;1100;52.014;8.540;2022-11-20T02:11:30;99782.00;;;-5.77;83.55
2188;BME280;1100;52.014;8.540;2022-11-20T02:13:56;99775.78;;;-5.77;83.67
2188;BME280;1100;52.014;8.540;2022-11-20T02:16:24;99773.53;;;-5.75;83.68
2188;BME280;1100;52.014;8.540;2022-11-20T02:18:51;99771.50;;;-5.78;83.41
2188;BME280;1100;52.014;8.540;2022-11-20T02:24:02;99775.78;;;-5.77;83.46
2188;BME280;1100;52.014;8.540;2022-11-20T02:26:30;99768.34;;;-5.80;83.45
2188;BME280;1100;52.014;8.540;2022-11-20T02:28:56;99763.59;;;-5.83;83.60
2188;BME280;1100;52.014;8.540;2022-11-20T02:31:23;99761.56;;;-5.87;83.79
2188;BME280;1100;52.014;8.540;2022-11-20T02:33:54;99753.44;;;-5.87;83.61
2188;BME280;1100;52.014;8.540;2022-11-20T02:36:20;99745.97;;;-5.90;83.76
2188;BME280;1100;52.014;8.540;2022-11-20T02:38:45;99744.88;;;-5.89;83.68
2188;BME280;1100;52.014;8.540;2022-11-20T02:41:10;99748.34;;;-5.88;83.79
2188;BME280;1100;52.014;8.540;2022-11-20T02:43:35;99743.28;;;-5.90;83.62
2188;BME280;1100;52.014;8.540;2022-11-20T02:46:01;99747.31;;;-5.96;83.33
2188;BME280;1100;52.014;8.540;2022-11-20T02:48:26;99742.38;;;-5.94;83.53
2188;BME280;1100;52.014;8.540;2022-11-20T02:50:51;99754.00;;;-5.93;83.66
2188;BME280;1100;52.014;8.540;2022-11-20T02:53:16;99751.63;;;-5.95;83.53
2188;BME280;1100;52.014;8.540;2022-11-20T02:55:42;99746.22;;;-5.95;84.01
2188;BME280;1100;52.014;8.540;2022-11-20T02:58:07;99743.50;;;-5.95;83.33
2188;BME280;1100;52.014;8.540;2022-11-20T03:00:32;99729.84;;;-5.98;83.54
2188;BME280;1100;52.014;8.540;2022-11-20T03:02:58;99732.09;;;-6.01;83.80
2188;BME280;1100;52.014;8.540;2022-11-20T03:05:23;99728.28;;;-6.00;83.80
2188;BME280;1100;52.014;8.540;2022-11-20T03:07:49;99720.50;;;-6.01;83.90
2188;BME280;1100;52.014;8.540;2022-11-20T03:10:14;99719.81;;;-5.98;83.71
2188;BME280;1100;52.014;8.540;2022-11-20T03:12:39;99719.81;;;-5.98;83.51
2188;BME280;1100;52.014;8.540;2022-11-20T03:15:05;99721.25;;;-6.01;83.45
2188;BME280;1100;52.014;8.540;2022-11-20T03:17:34;99716.50;;;-6.04;83.63
2188;BME280;1100;52.014;8.540;2022-11-20T03:19:59;99722.72;;;-6.03;83.88
2188;BME280;1100;52.014;8.540;2022-11-20T03:22:25;99722.28;;;-6.05;83.42
2188;BME280;1100;52.014;8.540;2022-11-20T03:24:53;99726.59;;;-6.04;83.43
2188;BME280;1100;52.014;8.540;2022-11-20T03:27:18;99724.91;;;-6.09;83.21
2188;BME280;1100;52.014;8.540;2022-11-20T03:32:17;99726.25;;;-6.15;83.51
2188;BME280;1100;52.014;8.540;2022-11-20T03:34:42;99713.03;;;-6.17;83.67
2188;BME280;1100;52.014;8.540;2022-11-20T03:37:07;99712.09;;;-6.21;83.44
2188;BME280;1100;52.014;8.540;2022-11-20T03:39:32;99712.91;;;-6.20;83.69
2188;BME280;1100;52.014;8.540;2022-11-20T03:41:58;99714.47;;;-6.19;83.56
2188;BME280;1100;52.014;8.540;2022-11-20T03:44:23;99715.94;;;-6.22;83.62
2188;BME280;1100;52.014;8.540;2022-11-20T03:46:48;99710.75;;;-6.27;83.13
2188;BME280;1100;52.014;8.540;2022-11-20T03:49:14;99717.47;;;-6.33;83.44
2188;BME280;1100;52.014;8.540;2022-11-20T03:51:39;99717.94;;;-6.31;83.51
2188;BME280;1100;52.014;8.540;2022-11-20T03:54:06;99704.44;;;-6.31;83.71
2188;BME280;1100;52.014;8.540;2022-11-20T03:56:37;99705.22;;;-6.31;83.71
2188;BME280;1100;52.014;8.540;2022-11-20T03:59:04;99710.31;;;-6.29;83.32
2188;BME280;1100;52.014;8.540;2022-11-20T04:01:33;99714.78;;;-6.33;83.81
2188;BME280;1100;52.014;8.540;2022-11-20T04:03:59;99720.19;;;-6.33;83.50
2188;BME280;1100;52.014;8.540;2022-11-20T04:06:25;99722.13;;;-6.34;83.97
2188;BME280;1100;52.014;8.540;2022-11-20T04:08:53;99713.22;;;-6.34;83.56
2188;BME280;1100;52.014;8.540;2022-11-20T04:11:23;99715.44;;;-6.36;83.62
2188;BME280;1100;52.014;8.540;2022-11-20T04:13:52;99711.63;;;-6.35;83.60
2188;BME280;1100;52.014;8.540;2022-11-20T04:16:19;99717.81;;;-6.35;83.39
2188;BME280;1100;52.014;8.540;2022-11-20T04:18:44;99724.03;;;-6.34;83.66
2188;BME280;1100;52.014;8.540;2022-11-20T04:21:10;99725.59;;;-6.33;83.37
2188;BME280;1100;52.014;8.540;2022-11-20T04:23:36;99723.22;;;-6.35;83.59
2188;BME280;1100;52.014;8.540;2022-11-20T04:26:07;99720.41;;;-6.39;83.75
2188;BME280;1100;52.014;8.540;2022-11-20T04:28:33;99713.75;;;-6.41;83.87
2188;BME280;1100;52.014;8.540;2022-11-20T04:31:10;99710.25;;;-6.42;83.35
2188;BME280;1100;52.014;8.540;2022-11-20T04:33:36;99714.06;;;-6.43;83.65
2188;BME280;1100;52.014;8.540;2022-11-20T04:36:21;99705.97;;;-6.43;83.82
2188;BME280;1100;52.014;8.540;2022-11-20T04:38:50;99704.53;;;-6.40;83.96
2188;BME280;1100;52.014;8.540;2022-11-20T04:41:18;99712.16;;;-6.42;83.60
2188;BME280;1100;52.014;8.540;2022-11-20T04:43:48;99700.09;;;-6.45;83.52
2188;BME280;1100;52.014;8.540;2022-11-20T04:46:15;99703.72;;;-6.41;84.17
2188;BME280;1100;52.014;8.540;2022-11-20T04:48:40;99707.56;;;-6.42;83.52
2188;BME280;1100;52.014;8.540;2022-11-20T04:51:06;99708.31;;;-6.41;83.72
2188;BME280;1100;52.014;8.540;2022-11-20T04:53:31;99704.38;;;-6.44;83.45
2188;BME280;1100;52.014;8.540;2022-11-20T04:56:06;99702.34;;;-6.47;83.44
2188;BME280;1100;52.014;8.540;2022-11-20T04:58:32;99708.09;;;-6.48;83.91
2188;BME280;1100;52.014;8.540;2022-11-20T05:01:18;99705.38;;;-6.48;83.37
2188;BME280;1100;52.014;8.540;2022-11-20T05:03:44;99704.16;;;-6.51;83.64
2188;BME280;1100;52.014;8.540;2022-11-20T05:06:16;99707.19;;;-6.53;83.46
2188;BME280;1100;52.014;8.540;2022-11-20T05:08:41;99704.47;;;-6.53;83.61
2188;BME280;1100;52.014;8.540;2022-11-20T05:11:12;99702.88;;;-6.54;83.57
2188;BME280;1100;52.014;8.540;2022-11-20T05:13:38;99701.63;;;-6.56;83.64
2188;BME280;1100;52.014;8.540;2022-11-20T05:16:15;99708.50;;;-6.59;83.99
2188;BME280;1100;52.014;8.540;2022-11-20T05:18:41;99705.66;;;-6.63;83.88
2188;BME280;1100;52.014;8.540;2022-11-20T05:21:09;99706.81;;;-6.64;83.65
2188;BME280;1100;52.014;8.540;2022-11-20T05:23:35;99709.03;;;-6.66;83.71
2188;BME280;1100;52.014;8.540;2022-11-20T05:26:01;99703.75;;;-6.62;83.63
2188;BME280;1100;52.014;8.540;2022-11-20T05:28:28;99700.72;;;-6.60;83.94
2188;BME280;1100;52.014;8.540;2022-11-20T05:30:54;99704.53;;;-6.61;83.84
2188;BME280;1100;52.014;8.540;2022-11-20T05:33:20;99699.47;;;-6.63;83.54
2188;BME280;1100;52.014;8.540;2022-11-20T05:35:46;99692.47;;;-6.64;83.76
2188;BME280;1100;52.014;8.540;2022-11-20T05:38:11;99694.38;;;-6.65;83.97
2188;BME280;1100;52.014;8.540;2022-11-20T05:40:37;99694.38;;;-6.65;83.81
2188;BME280;1100;52.014;8.540;2022-11-20T05:43:02;99690.91;;;-6.65;83.88
2188;BME280;1100;52.014;8.540;2022-11-20T05:45:28;99688.97;;;-6.65;83.56
2188;BME280;1100;52.014;8.540;2022-11-20T05:47:53;99685.16;;;-6.64;83.85
2188;BME280;1100;52.014;8.540;2022-11-20T05:50:19;99685.16;;;-6.64;83.47
2188;BME280;1100;52.014;8.540;2022-11-20T05:52:44;99686.28;;;-6.65;83.70
2188;BME280;1100;52.014;8.540;2022-11-20T05:55:10;99686.75;;;-6.63;83.63
2188;BME280;1100;52.014;8.540;2022-11-20T05:57:35;99679.09;;;-6.60;84.09
2188;BME280;1100;52.014;8.540;2022-11-20T06:00:03;99677.50;;;-6.61;83.86
2188;BME280;1100;52.014;8.540;2022-11-20T06:02:29;99680.09;;;-6.65;83.33
2188;BME280;1100;52.014;8.540;2022-11-20T06:04:54;99678.81;;;-6.68;83.73
2188;BME280;1100;52.014;8.540;2022-11-20T06:07:19;99669.47;;;-6.70;83.61
2188;BME280;1100;52.014;8.540;2022-11-20T06:09:45;99679.63;;;-6.67;83.62
2188;BME280;1100;52.014;8.540;2022-11-20T06:12:10;99674.09;;;-6.71;83.70
2188;BME280;1100;52.014;8.540;2022-11-20T06:14:35;99681.53;;;-6.68;83.42
2188;BME280;1100;52.014;8.540;2022-11-20T06:17:00;99689.06;;;-6.73;83.81
2188;BME280;1100;52.014;8.540;2022-11-20T06:19:26;99689.84;;;-6.73;83.48
2188;BME280;1100;52.014;8.540;2022-11-20T06:21:51;99685.56;;;-6.74;84.07
2188;BME280;1100;52.014;8.540;2022-11-20T06:24:17;99674.28;;;-6.76;83.67
2188;BME280;1100;52.014;8.540;2022-11-20T06:26:43;99676.97;;;-6.76;83.53
2188;BME280;1100;52.014;8.540;2022-11-20T06:29:08;99676.66;;;-6.75;83.73
2188;BME280;1100;52.014;8.540;2022-11-20T06:31:33;99675.22;;;-6.72;83.74
2188;BME280;1100;52.014;8.540;2022-11-20T06:34:03;99679.50;;;-6.71;83.62
2188;BME280;1100;52.014;8.540;2022-11-20T06:36:28;99678.34;;;-6.70;83.63
2188;BME280;1100;52.014;8.540;2022-11-20T06:38:54;99681.53;;;-6.68;83.82
2188;BME280;1100;52.014;8.540;2022-11-20T06:41:20;99677.25;;;-6.69;83.89
2188;BME280;1100;52.014;8.540;2022-11-20T06:43:46;99674.88;;;-6.70;83.42
2188;BME280;1100;52.014;8.540;2022-11-20T06:46:14;99674.88;;;-6.70;83.79
2188;BME280;1100;52.014;8.540;2022-11-20T06:48:42;99668.34;;;-6.69;84.06
2188;BME280;1100;52.014;8.540;2022-11-20T06:51:07;99670.91;;;-6.73;84.16
2188;BME280;1100;52.014;8.540;2022-11-20T06:53:34;99676.72;;;-6.62;84.00
2188;BME280;1100;52.014;8.540;2022-11-20T06:55:59;99665.34;;;-6.55;83.58
2188;BME280;1100;52.014;8.540;2022-11-20T06:58:30;99674.13;;;-6.58;84.03
2188;BME280;1100;52.014;8.540;2022-11-20T07:01:03;99680.47;;;-6.54;84.28
2188;BME280;1100;52.014;8.540;2022-11-20T07:03:29;99689.72;;;-6.43;84.20
2188;BME280;1100;52.014;8.540;2022-11-20T07:05:56;99681.88;;;-6.35;84.07
2188;BME280;1100;52.014;8.540;2022-11-20T07:08:21;99675.56;;;-6.27;84.14
2188;BME280;1100;52.014;8.540;2022-11-20T07:10:47;99679.09;;;-6.14;84.56
2188;BME280;1100;52.014;8.540;2022-11-20T07:13:12;99687.44;;;-5.94;84.49
2188;BME280;1100;52.014;8.540;2022-11-20T07:15:38;99689.47;;;-5.79;84.46
2188;BME280;1100;52.014;8.540;2022-11-20T07:18:03;99688.47;;;-5.62;84.46
2188;BME280;1100;52.014;8.540;2022-11-20T07:20:28;99688.47;;;-5.49;84.33
2188;BME280;1100;52.014;8.540;2022-11-20T07:22:55;99692.09;;;-5.32;84.95
2188;BME280;1100;52.014;8.540;2022-11-20T07:25:21;99689.00;;;-5.18;84.65
2188;BME280;1100;52.014;8.540;2022-11-20T07:27:46;99703.34;;;-5.05;84.84
2188;BME280;1100;52.014;8.540;2022-11-20T07:30:12;99708.97;;;-4.98;84.38
2188;BME280;1100;52.014;8.540;2022-11-20T07:32:39;99697.88;;;-4.93;84.87
2188;BME280;1100;52.014;8.540;2022-11-20T07:35:04;99699.91;;;-4.90;84.79
2188;BME280;1100;52.014;8.540;2022-11-20T07:37:30;99696.50;;;-4.86;84.81
2188;BME280;1100;52.014;8.540;2022-11-20T07:39:55;99691.63;;;-4.81;85.22
2188;BME280;1100;52.014;8.540;2022-11-20T07:42:20;99701.06;;;-4.62;85.17
2188;BME280;1100;52.014;8.540;2022-11-20T07:44:46;99700.91;;;-4.53;85.43
2188;BME280;1100;52.014;8.540;2022-11-20T07:47:11;99698.06;;;-4.44;85.30
2188;BME280;1100;52.014;8.540;2022-11-20T07:49:36;99706.38;;;-4.37;85.24
2188;BME280;1100;52.014;8.540;2022-11-20T07:52:01;99705.44;;;-4.29;85.51
2188;BME280;1100;52.014;8.540;2022-11-20T07:54:27;99708.78;;;-4.19;85.52
2188;BME280;1100;52.014;8.540;2022-11-20T07:56:53;99708.16;;;-4.13;85.54
2188;BME280;1100;52.014;8.540;2022-11-20T07:59:19;99706.00;;;-4.07;85.73
2188;BME280;1100;52.014;8.540;2022-11-20T08:01:44;99696.47;;;-4.01;85.51
2188;BME280;1100;52.014;8.540;2022-11-20T08:04:09;99697.88;;;-3.91;85.79
2188;BME280;1100;52.014;8.540;2022-11-20T08:06:35;99688.38;;;-3.81;85.71
2188;BME280;1100;52.014;8.540;2022-11-20T08:09:01;99693.66;;;-3.72;85.76
2188;BME280;1100;52.014;8.540;2022-11-20T08:11:26;99697.00;;;-3.63;85.48
2188;BME280;1100;52.014;8.540;2022-11-20T08:14:10;99703.44;;;-3.51;85.48
2188;BME280;1100;52.014;8.540;2022-11-20T08:16:43;99693.53;;;-3.43;85.46
2188;BME280;1100;52.014;8.540;2022-11-20T08:19:37;99689.75;;;-3.39;85.39
2188;BME280;1100;52.014;8.540;2022-11-20T08:22:03;99690.56;;;-3.38;85.35
2188;BME280;1100;52.014;8.540;2022-11-20T08:24:28;99681.25;;;-3.37;85.61
2188;BME280;1100;52.014;8.540;2022-11-20T08:26:53;99664.06;;;-3.41;85.21
2188;BME280;1100;52.014;8.540;2022-11-20T08:29:18;99680.38;;;-3.41;85.27
2188;BME280;1100;52.014;8.540;2022-11-20T08:31:44;99670.31;;;-3.41;85.50
2188;BME280;1100;52.014;8.540;2022-11-20T08:34:10;99673.31;;;-3.26;85.13
2188;BME280;1100;52.014;8.540;2022-11-20T08:36:36;99665.22;;;-3.06;85.09
2188;BME280;1100;52.014;8.540;2022-11-20T08:39:02;99670.16;;;-2.92;84.80
2188;BME280;1100;52.014;8.540;2022-11-20T08:41:28;99674.72;;;-2.96;84.85
2188;BME280;1100;52.014;8.540;2022-11-20T08:43:57;99667.63;;;-3.01;84.74
2188;BME280;1100;52.014;8.540;2022-11-20T08:46:30;99668.78;;;-3.02;85.02
2188;BME280;1100;52.014;8.540;2022-11-20T08:48:55;99672.09;;;-2.93;84.96
2188;BME280;1100;52.014;8.540;2022-11-20T08:51:21;99677.25;;;-2.88;84.72
2188;BME280;1100;52.014;8.540;2022-11-20T08:53:46;99681.69;;;-2.79;84.51
2188;BME280;1100;52.014;8.540;2022-11-20T08:56:14;99673.66;;;-2.52;84.04
2188;BME280;1100;52.014;8.540;2022-11-20T08:58:39;99683.38;;;-2.31;84.25
2188;BME280;1100;52.014;8.540;2022-11-20T09:01:04;99682.38;;;-2.23;84.12
2188;BME280;1100;52.014;8.540;2022-11-20T09:03:30;99685.69;;;-2.10;83.30
2188;BME280;1100;52.014;8.540;2022-11-20T09:06:05;99690.78;;;-2.08;83.44
2188;BME280;1100;52.014;8.540;2022-11-20T09:08:31;99688.72;;;-2.15;83.22
2188;BME280;1100;52.014;8.540;2022-11-20T09:10:58;99684.94;;;-2.30;83.73
2188;BME280;1100;52.014;8.540;2022-11-20T09:13:24;99685.53;;;-2.41;84.03
2188;BME280;1100;52.014;8.540;2022-11-20T09:15:58;99685.53;;;-2.41;84.09
2188;BME280;1100;52.014;8.540;2022-11-20T09:18:24;99685.06;;;-2.46;84.17
2188;BME280;1100;52.014;8.540;2022-11-20T09:20:50;99689.34;;;-2.45;84.33
2188;BME280;1100;52.014;8.540;2022-11-20T09:23:16;99694.53;;;-2.17;84.22
2188;BME280;1100;52.014;8.540;2022-11-20T09:25:42;99695.81;;;-1.87;83.65
2188;BME280;1100;52.014;8.540;2022-11-20T09:28:07;99689.63;;;-1.84;83.79
2188;BME280;1100;52.014;8.540;2022-11-20T09:30:33;99675.66;;;-2.06;83.86
2188;BME280;1100;52.014;8.540;2022-11-20T09:32:58;99685.09;;;-2.23;84.27
2188;BME280;1100;52.014;8.540;2022-11-20T09:35:24;99683.91;;;-2.45;84.49
2188;BME280;1100;52.014;8.540;2022-11-20T09:37:49;99675.16;;;-2.55;84.84
2188;BME280;1100;52.014;8.540;2022-11-20T09:40:26;99674.09;;;-2.50;84.85
2188;BME280;1100;52.014;8.540;2022-11-20T09:54:09;99673.56;;;-2.36;84.86
2188;BME280;1100;52.014;8.540;2022-11-20T09:56:42;99674.72;;;-2.37;85.18
2188;BME280;1100;52.014;8.540;2022-11-20T09:59:20;99666.88;;;-2.19;85.16
2188;BME280;1100;52.014;8.540;2022-11-20T10:01:49;99668.50;;;-1.91;85.29
2188;BME280;1100;52.014;8.540;2022-11-20T10:04:19;99667.50;;;-1.79;84.84
2188;BME280;1100;52.014;8.540;2022-11-20T10:09:27;99672.09;;;-1.59;85.04
2188;BME280;1100;52.014;8.540;2022-11-20T10:17:19;99650.22;;;-1.36;85.07
2188;BME280;1100;52.014;8.540;2022-11-20T10:25:19;99642.25;;;-1.21;85.02
2188;BME280;1100;52.014;8.540;2022-11-20T10:30:18;99635.50;;;-1.31;85.32
2188;BME280;1100;52.014;8.540;2022-11-20T10:32:50;99632.94;;;-1.47;85.01
2188;BME280;1100;52.014;8.540;2022-11-20T10:35:23;99626.56;;;-1.59;85.18
2188;BME280;1100;52.014;8.540;2022-11-20T10:37:58;99627.28;;;-1.62;85.37
2188;BME280;1100;52.014;8.540;2022-11-20T10:40:35;99625.84;;;-1.52;85.31
2188;BME280;1100;52.014;8.540;2022-11-20T10:45:48;99612.38;;;-1.10;84.90
2188;BME280;1100;52.014;8.540;2022-11-20T10:48:16;99609.38;;;-1.02;84.97
2188;BME280;1100;52.014;8.540;2022-11-20T10:56:54;99598.25;;;-0.85;84.90
2188;BME280;1100;52.014;8.540;2022-11-20T11:02:22;99588.56;;;-0.79;84.83
2188;BME280;1100;52.014;8.540;2022-11-20T11:04:52;99592.03;;;-0.82;84.40
2188;BME280;1100;52.014;8.540;2022-11-20T11:07:27;99587.75;;;-0.83;84.69
2188;BME280;1100;52.014;8.540;2022-11-20T11:09:56;99590.47;;;-0.83;84.62
2188;BME280;1100;52.014;8.540;2022-11-20T11:12:24;99586.16;;;-0.84;84.45
2188;BME280;1100;52.014;8.540;2022-11-20T11:14:52;99577.97;;;-0.84;84.27
2188;BME280;1100;52.014;8.540;2022-11-20T11:17:28;99579.91;;;-0.89;83.99
2188;BME280;1100;52.014;8.540;2022-11-20T11:22:56;99566.63;;;-0.90;84.26
2188;BME280;1100;52.014;8.540;2022-11-20T11:25:29;99567.84;;;-0.84;84.02
2188;BME280;1100;52.014;8.540;2022-11-20T11:27:58;99568.22;;;-0.85;83.62
2188;BME280;1100;52.014;8.540;2022-11-20T11:30:25;99569.03;;;-0.85;83.83
2188;BME280;1100;52.014;8.540;2022-11-20T11:33:02;99574.13;;;-0.80;83.95
2188;BME280;1100;52.014;8.540;2022-11-20T11:35:28;99561.31;;;-0.76;84.08
2188;BME280;1100;52.014;8.540;2022-11-20T11:38:07;99563.31;;;-0.72;83.83
2188;BME280;1100;52.014;8.540;2022-11-20T11:40:38;99567.25;;;-0.66;83.81
2188;BME280;1100;52.014;8.540;2022-11-20T11:43:07;99574.34;;;-0.61;83.94
2188;BME280;1100;52.014;8.540;2022-11-20T11:46:02;99569.25;;;-0.59;83.29
2188;BME280;1100;52.014;8.540;2022-11-20T11:48:29;99564.16;;;-0.65;83.55
2188;BME280;1100;52.014;8.540;2022-11-20T11:50:54;99556.34;;;-0.63;83.73
2188;BME280;1100;52.014;8.540;2022-11-20T11:53:21;99560.31;;;-0.56;83.66
2188;BME280;1100;52.014;8.540;2022-11-20T11:55:59;99555.28;;;-0.54;83.54
2188;BME280;1100;52.014;8.540;2022-11-20T12:01:32;99556.97;;;-0.39;83.56
2188;BME280;1100;52.014;8.540;2022-11-20T12:04:04;99557.44;;;-0.29;83.71
2188;BME280;1100;52.014;8.540;2022-11-20T12:06:32;99558.25;;;-0.25;83.70
2188;BME280;1100;52.014;8.540;2022-11-20T12:09:04;99557.47;;;-0.22;83.49
2188;BME280;1100;52.014;8.540;2022-11-20T12:14:09;99550.47;;;-0.23;83.33
2188;BME280;1100;52.014;8.540;2022-11-20T12:16:37;99544.63;;;-0.21;83.34
2188;BME280;1100;52.014;8.540;2022-11-20T12:19:11;99552.78;;;-0.25;83.23
2188;BME280;1100;52.014;8.540;2022-11-20T12:24:42;99544.19;;;-0.23;82.88
2188;BME280;1100;52.014;8.540;2022-11-20T12:27:35;99534.88;;;-0.19;82.98
2188;BME280;1100;52.014;8.540;2022-11-20T12:30:09;99520.50;;;-0.12;82.96
2188;BME280;1100;52.014;8.540;2022-11-20T12:41:36;99520.34;;;0.26;82.75
2188;BME280;1100;52.014;8.540;2022-11-20T12:44:31;99518.41;;;0.30;82.60
2188;BME280;1100;52.014;8.540;2022-11-20T12:53:04;99505.63;;;0.56;82.71
2188;BME280;1100;52.014;8.540;2022-11-20T12:55:32;99508.75;;;0.55;82.47
2188;BME280;1100;52.014;8.540;2022-11-20T12:58:11;99505.97;;;0.44;82.14
2188;BME280;1100;52.014;8.540;2022-11-20T13:00:50;99508.28;;;0.34;81.81
2188;BME280;1100;52.014;8.540;2022-11-20T13:06:17;99503.13;;;0.22;81.85
2188;BME280;1100;52.014;8.540;2022-11-20T13:08:49;99498.44;;;0.22;81.88
2188;BME280;1100;52.014;8.540;2022-11-20T13:11:27;99496.50;;;0.23;81.88
2188;BME280;1100;52.014;8.540;2022-11-20T13:19:13;99487.97;;;0.35;82.11
2188;BME280;1100;52.014;8.540;2022-11-20T13:21:42;99487.59;;;0.41;81.53
2188;BME280;1100;52.014;8.540;2022-11-20T13:24:29;99479.41;;;0.48;81.63
2188;BME280;1100;52.014;8.540;2022-11-20T13:29:41;99482.59;;;0.68;81.03
2188;BME280;1100;52.014;8.540;2022-11-20T13:32:16;99470.13;;;0.74;80.85
2188;BME280;1100;52.014;8.540;2022-11-20T13:35:02;99470.91;;;0.82;81.02
2188;BME280;1100;52.014;8.540;2022-11-20T13:37:29;99475.22;;;0.94;81.07
2188;BME280;1100;52.014;8.540;2022-11-20T13:40:24;99473.28;;;0.95;80.94
2188;BME280;1100;52.014;8.540;2022-11-20T13:46:00;99461.16;;;0.85;80.98
2188;BME280;1100;52.014;8.540;2022-11-20T13:48:30;99458.00;;;0.72;80.76
2188;BME280;1100;52.014;8.540;2022-11-20T13:51:20;99444.66;;;0.52;80.84
2188;BME280;1100;52.014;8.540;2022-11-20T13:56:24;99433.63;;;0.23;80.74
2188;BME280;1100;52.014;8.540;2022-11-20T14:01:39;99433.53;;;0.08;81.41
2188;BME280;1100;52.014;8.540;2022-11-20T14:04:08;99422.63;;;0.08;81.38
2188;BME280;1100;52.014;8.540;2022-11-20T14:06:41;99421.09;;;0.11;81.64
2188;BME280;1100;52.014;8.540;2022-11-20T14:09:24;99426.16;;;0.13;81.58
2188;BME280;1100;52.014;8.540;2022-11-20T14:11:50;99417.19;;;0.16;81.54
2188;BME280;1100;52.014;8.540;2022-11-20T14:14:18;99419.16;;;0.19;81.71
2188;BME280;1100;52.014;8.540;2022-11-20T14:16:44;99420.72;;;0.20;81.65
2188;BME280;1100;52.014;8.540;2022-11-20T14:21:44;99401.19;;;0.18;81.92
2188;BME280;1100;52.014;8.540;2022-11-20T14:24:12;99399.22;;;0.15;81.90
2188;BME280;1100;52.014;8.540;2022-11-20T14:26:42;99390.22;;;0.10;81.91
2188;BME280;1100;52.014;8.540;2022-11-20T14:29:13;99385.91;;;0.06;81.83
2188;BME280;1100;52.014;8.540;2022-11-20T14:31:40;99389.44;;;0.06;81.88
2188;BME280;1100;52.014;8.540;2022-11-20T14:34:14;99377.69;;;0.02;81.99
2188;BME280;1100;52.014;8.540;2022-11-20T14:36:42;99372.59;;;-0.03;81.92
2188;BME280;1100;52.014;8.540;2022-11-20T14:39:11;99368.28;;;-0.04;82.25
2188;BME280;1100;52.014;8.540;2022-11-20T14:41:37;99370.25;;;-0.08;82.26
2188;BME280;1100;52.014;8.540;2022-11-20T14:44:02;99376.47;;;-0.11;82.31
2188;BME280;1100;52.014;8.540;2022-11-20T14:46:30;99369.44;;;-0.16;82.32
2188;BME280;1100;52.014;8.540;2022-11-20T14:48:57;99362.41;;;-0.14;82.31
2188;BME280;1100;52.014;8.540;2022-11-20T14:51:31;99360.84;;;-0.15;82.31
2188;BME280;1100;52.014;8.540;2022-11-20T14:56:35;99356.16;;;-0.18;82.38
2188;BME280;1100;52.014;8.540;2022-11-20T14:59:00;99356.91;;;-0.17;82.45
2188;BME280;1100;52.014;8.540;2022-11-20T15:01:27;99352.59;;;-0.22;82.50
2188;BME280;1100;52.014;8.540;2022-11-20T15:04:10;99347.53;;;-0.20;82.71
2188;BME280;1100;52.014;8.540;2022-11-20T15:06:37;99346.38;;;-0.19;82.87
2188;BME280;1100;52.014;8.540;2022-11-20T15:09:04;99347.56;;;-0.16;82.66